Portada
METAR-TAF:

METAR-TAF

Aeroports :

Châlons-en-Champagne, França

latitud: 48-46-34N, longitud: 004-11-04E, altitud: 179 m

Observació

L'informe es va fer fa 30 minuts, a les 11:30 UTC
Vent 3 kt amb direcció variable
Temperatura 25°C
Humitat 50%
Pressió 1024 hPa
Visibilitat 10 km o més
sense núvols per sota de 1500 mi sense presència de cumulonimbus.

METAR: LFOK 151130Z AUTO VRB03KT CAVOK 25/14 Q1024 NOSIG

Hora: 14:00 (12:00 UTC)

Pronòstic

L'informe es va fer fa 1 hora i 0 minuts, a les 11:00 UTC
Pronòstic vàlid del 15 a les 12 UTC al 16 a les 12 UTC
Vent 5 kt del Nord
Visibilitat 10 km o més
sense núvols per sota de 1500 mi sense presència de cumulonimbus.

TAF: LFOK 151100Z 1512/1612 36005KT CAVOK

Observacions i pronòstics meteorològics de més de 4000 aeroports (METAR i TAF).

Les estacions disponibles són els punts grocs i vermells al mapa.

Posi el ratolí al punt desitjat per veure el nom de l'estació.

Feu clic per veure les observacions i els pronòstics meteorològics.

Per canviar el mapa: feu clic els botons verds amb una creu de color negre per apropar; al botó verd amb un guió per allunyar la imatge; o en les fletxes verdes per a mapes adjacents.


METAR-TAF: